createdAt,value
2022-10-09T00:00:09.558Z,17.33
2022-10-09T00:02:57.838Z,16.92
2022-10-09T00:05:45.917Z,19.17
2022-10-09T00:08:31.950Z,19.80
2022-10-09T00:11:22.178Z,18.67
2022-10-09T00:14:08.651Z,17.98
2022-10-09T00:16:55.166Z,18.38
2022-10-09T00:19:41.561Z,22.15
2022-10-09T00:22:28.292Z,19.92
2022-10-09T00:25:14.547Z,27.17
2022-10-09T00:28:02.091Z,22.20
2022-10-09T00:30:48.720Z,22.65
2022-10-09T00:33:35.330Z,23.30
2022-10-09T00:36:24.220Z,22.17
2022-10-09T00:39:10.513Z,24.67
2022-10-09T00:41:56.940Z,22.60
2022-10-09T00:44:54.376Z,19.87
2022-10-09T00:47:44.794Z,20.97
2022-10-09T00:50:45.223Z,22.73
2022-10-09T00:53:34.103Z,21.90
2022-10-09T00:56:20.095Z,19.60
2022-10-09T00:59:06.937Z,22.55
2022-10-09T01:01:54.001Z,20.02
2022-10-09T01:04:39.681Z,24.23
2022-10-09T01:07:47.536Z,21.00
2022-10-09T01:11:09.127Z,20.58
2022-10-09T01:14:00.995Z,19.27
2022-10-09T01:17:33.475Z,19.80
2022-10-09T01:20:40.745Z,22.90
2022-10-09T01:23:27.144Z,21.60
2022-10-09T01:26:18.835Z,19.25
2022-10-09T01:29:10.770Z,18.75
2022-10-09T01:31:58.551Z,19.50
2022-10-09T01:34:46.128Z,19.40
2022-10-09T01:37:34.593Z,19.83
2022-10-09T01:40:22.258Z,20.48
2022-10-09T01:43:08.045Z,19.25
2022-10-09T01:46:18.630Z,17.75
2022-10-09T01:49:42.799Z,19.63
2022-10-09T01:52:50.183Z,18.98
2022-10-09T01:56:02.703Z,18.73
2022-10-09T01:59:02.365Z,20.40
2022-10-09T02:01:50.009Z,19.77
2022-10-09T02:04:39.261Z,19.77
2022-10-09T02:07:27.097Z,19.20
2022-10-09T02:10:15.497Z,19.20
2022-10-09T02:13:01.745Z,20.77
2022-10-09T02:16:12.523Z,19.48
2022-10-09T02:19:35.471Z,17.27
2022-10-09T02:22:32.198Z,18.95
2022-10-09T02:25:19.027Z,18.33
2022-10-09T02:28:05.898Z,20.23
2022-10-09T02:31:03.785Z,20.65
2022-10-09T02:34:05.026Z,16.63
2022-10-09T02:36:51.513Z,17.90
2022-10-09T02:39:37.654Z,18.73
2022-10-09T02:42:25.947Z,17.70
2022-10-09T02:45:12.246Z,19.27
2022-10-09T02:47:58.578Z,17.15
2022-10-09T02:50:44.772Z,19.88
2022-10-09T02:53:33.139Z,18.95
2022-10-09T02:56:19.541Z,22.23
2022-10-09T02:59:05.754Z,18.92
2022-10-09T03:01:52.239Z,17.23
2022-10-09T03:04:38.345Z,20.00
2022-10-09T03:07:24.835Z,16.98
2022-10-09T03:10:10.829Z,18.35
2022-10-09T03:12:57.277Z,16.93
2022-10-09T03:15:43.311Z,17.67
2022-10-09T03:18:29.641Z,16.67
2022-10-09T03:21:22.166Z,17.45
2022-10-09T03:24:08.249Z,18.52
2022-10-09T03:26:54.251Z,17.27
2022-10-09T03:29:43.356Z,17.83
2022-10-09T03:32:29.581Z,17.60
2022-10-09T03:35:15.856Z,18.07
2022-10-09T03:38:01.799Z,17.83
2022-10-09T03:40:48.009Z,17.23
2022-10-09T03:43:35.675Z,17.73
2022-10-09T03:46:21.750Z,19.27
2022-10-09T03:49:08.117Z,18.23
2022-10-09T03:51:54.370Z,16.88
2022-10-09T03:54:43.377Z,17.25
2022-10-09T03:57:29.336Z,17.90
2022-10-09T04:00:15.801Z,20.02
2022-10-09T04:03:02.066Z,18.13
2022-10-09T04:05:48.286Z,17.13
2022-10-09T04:08:36.306Z,17.17
2022-10-09T04:11:22.139Z,17.50
2022-10-09T04:14:10.883Z,17.23
2022-10-09T04:16:56.578Z,16.95
2022-10-09T04:19:42.930Z,18.47
2022-10-09T04:22:28.766Z,17.50
2022-10-09T04:25:15.474Z,18.58
2022-10-09T04:28:01.569Z,17.88
2022-10-09T04:30:47.864Z,17.65
2022-10-09T04:33:33.923Z,18.70
2022-10-09T04:36:20.309Z,18.17
2022-10-09T04:39:06.521Z,16.83
2022-10-09T04:41:52.858Z,16.90
2022-10-09T04:44:38.688Z,18.37
2022-10-09T04:47:24.898Z,18.83
2022-10-09T04:50:10.777Z,19.05
2022-10-09T04:53:16.277Z,18.63
2022-10-09T04:56:04.633Z,18.02
2022-10-09T04:58:51.619Z,17.67
2022-10-09T05:01:38.611Z,20.10
2022-10-09T05:04:24.797Z,16.70
2022-10-09T05:07:11.349Z,16.50
2022-10-09T05:09:57.859Z,18.70
2022-10-09T05:12:43.691Z,19.75
2022-10-09T05:15:30.200Z,17.90
2022-10-09T05:18:15.846Z,17.60
2022-10-09T05:21:05.622Z,17.87
2022-10-09T05:23:53.645Z,18.35
2022-10-09T05:26:39.949Z,18.67
2022-10-09T05:29:25.800Z,18.37
2022-10-09T05:32:11.987Z,17.77
2022-10-09T05:34:57.871Z,19.13
2022-10-09T05:37:47.073Z,18.00
2022-10-09T05:40:32.976Z,18.02
2022-10-09T05:43:18.757Z,18.38
2022-10-09T05:46:09.847Z,18.33
2022-10-09T05:49:00.169Z,18.35
2022-10-09T05:51:46.305Z,23.17
2022-10-09T05:54:32.758Z,17.75
2022-10-09T05:57:18.426Z,19.35
2022-10-09T06:00:05.477Z,19.98
2022-10-09T06:02:57.842Z,17.85
2022-10-09T06:05:43.915Z,18.20
2022-10-09T06:08:33.978Z,18.85
2022-10-09T06:11:29.194Z,18.77
2022-10-09T06:14:15.326Z,17.95
2022-10-09T06:17:01.895Z,19.10
2022-10-09T06:19:47.601Z,18.67
2022-10-09T06:22:34.124Z,18.42
2022-10-09T06:25:20.733Z,20.20
2022-10-09T06:28:06.565Z,19.50
2022-10-09T06:30:52.617Z,16.98
2022-10-09T06:33:40.868Z,18.52
2022-10-09T06:36:29.457Z,19.70
2022-10-09T06:39:15.887Z,20.48
2022-10-09T06:42:01.646Z,19.48
2022-10-09T06:45:11.389Z,19.38
2022-10-09T06:47:57.305Z,19.20
2022-10-09T06:50:43.219Z,18.30
2022-10-09T06:53:29.534Z,19.40
2022-10-09T06:56:18.200Z,19.35
2022-10-09T06:59:06.338Z,18.50
2022-10-09T07:01:52.089Z,19.92
2022-10-09T07:04:38.203Z,21.85
2022-10-09T07:07:23.981Z,22.85
2022-10-09T07:10:10.704Z,21.92
2022-10-09T07:12:57.043Z,20.92
2022-10-09T07:15:46.144Z,21.60
2022-10-09T07:18:34.290Z,21.73
2022-10-09T07:21:21.831Z,23.15
2022-10-09T07:24:09.399Z,24.30
2022-10-09T07:26:57.552Z,23.15
2022-10-09T07:29:43.579Z,22.90
2022-10-09T07:32:29.932Z,22.88
2022-10-09T07:35:16.075Z,23.17
2022-10-09T07:38:02.479Z,22.90
2022-10-09T07:40:49.188Z,23.05
2022-10-09T07:43:36.940Z,22.50
2022-10-09T07:46:26.882Z,24.17
2022-10-09T07:49:15.147Z,23.67
2022-10-09T07:52:01.785Z,23.35
2022-10-09T07:54:47.911Z,22.40
2022-10-09T07:57:33.750Z,22.17
2022-10-09T08:00:20.219Z,24.63
2022-10-09T08:03:06.151Z,22.63
2022-10-09T08:05:56.112Z,24.23
2022-10-09T08:08:42.801Z,29.35
2022-10-09T08:11:30.077Z,23.63
2022-10-09T08:14:19.558Z,22.80
2022-10-09T08:17:05.419Z,22.33
2022-10-09T08:19:51.136Z,21.77
2022-10-09T08:22:37.048Z,27.30
2022-10-09T08:25:23.401Z,24.55
2022-10-09T08:28:09.445Z,28.33
2022-10-09T08:30:55.579Z,23.60
2022-10-09T08:33:43.152Z,24.40
2022-10-09T08:36:30.010Z,25.90
2022-10-09T08:39:15.924Z,25.95
2022-10-09T08:42:03.637Z,26.00
2022-10-09T08:44:50.428Z,24.75
2022-10-09T08:47:57.207Z,28.17
2022-10-09T08:50:49.332Z,25.05
2022-10-09T08:54:10.239Z,24.38
2022-10-09T08:56:55.935Z,24.33
2022-10-09T08:59:42.997Z,27.77
2022-10-09T09:02:53.807Z,26.90
2022-10-09T09:06:02.099Z,28.10
2022-10-09T09:09:19.149Z,24.70
2022-10-09T09:12:15.443Z,47.30
2022-10-09T09:15:22.781Z,28.73
2022-10-09T09:18:42.840Z,25.77
2022-10-09T09:21:53.662Z,26.35
2022-10-09T09:25:17.011Z,23.43
2022-10-09T09:28:18.624Z,25.55
2022-10-09T09:31:13.393Z,23.60
2022-10-09T09:34:06.386Z,21.92
2022-10-09T09:36:59.114Z,25.33
2022-10-09T09:40:31.350Z,26.38
2022-10-09T09:42:51.361Z,25.05
2022-10-09T09:45:38.606Z,26.38
2022-10-09T09:48:40.873Z,22.98
2022-10-09T09:51:30.023Z,23.15
2022-10-09T09:54:25.820Z,24.50
2022-10-09T09:57:17.008Z,25.52
2022-10-09T10:00:23.707Z,23.08
2022-10-09T10:03:16.189Z,21.17
2022-10-09T10:06:02.429Z,20.75
2022-10-09T10:09:01.998Z,63.80
2022-10-09T10:12:03.915Z,22.90
2022-10-09T10:14:53.558Z,21.58
2022-10-09T10:17:39.960Z,21.98
2022-10-09T10:20:27.877Z,20.00
2022-10-09T10:23:25.284Z,19.90
2022-10-09T10:26:20.955Z,22.67
2022-10-09T10:29:18.003Z,21.67
2022-10-09T10:32:32.431Z,19.45
2022-10-09T10:35:28.848Z,19.55
2022-10-09T10:38:58.612Z,21.67
2022-10-09T10:41:50.030Z,18.92
2022-10-09T10:44:47.235Z,20.48
2022-10-09T10:47:37.630Z,20.80
2022-10-09T10:50:28.277Z,21.13
2022-10-09T10:53:24.175Z,20.52
2022-10-09T10:56:30.404Z,22.23
2022-10-09T10:59:37.760Z,20.17
2022-10-09T11:02:41.137Z,23.35
2022-10-09T11:05:53.646Z,23.65
2022-10-09T11:08:39.419Z,23.52
2022-10-09T11:11:39.706Z,19.85
2022-10-09T11:14:47.397Z,16.95
2022-10-09T11:18:07.266Z,17.92
2022-10-09T11:21:17.500Z,16.10
2022-10-09T11:24:16.062Z,14.52
2022-10-09T11:27:14.181Z,14.90
2022-10-09T11:30:09.018Z,14.40
2022-10-09T11:33:03.264Z,15.57
2022-10-09T11:36:19.825Z,17.63
2022-10-09T11:39:18.683Z,23.10
2022-10-09T11:42:05.981Z,21.20
2022-10-09T11:45:08.753Z,19.70
2022-10-09T11:48:08.560Z,20.07
2022-10-09T11:51:09.066Z,20.23
2022-10-09T11:53:55.914Z,20.92
2022-10-09T11:57:05.202Z,18.02
2022-10-09T12:00:05.561Z,20.10
2022-10-09T12:03:01.612Z,17.23
2022-10-09T12:05:50.011Z,16.42
2022-10-09T12:08:37.170Z,18.20
2022-10-09T12:11:24.881Z,17.67
2022-10-09T12:14:23.605Z,18.73
2022-10-09T12:17:24.971Z,20.80
2022-10-09T12:20:21.657Z,17.20
2022-10-09T12:23:27.375Z,17.38
2022-10-09T12:26:16.175Z,16.67
2022-10-09T12:29:03.126Z,16.25
2022-10-09T12:31:52.812Z,15.63
2022-10-09T12:34:46.493Z,15.23
2022-10-09T12:37:35.747Z,15.38
2022-10-09T12:40:31.689Z,15.20
2022-10-09T12:43:19.300Z,16.13
2022-10-09T12:46:05.746Z,15.43
2022-10-09T12:48:54.682Z,15.63
2022-10-09T12:51:41.211Z,15.65
2022-10-09T12:54:30.294Z,16.58
2022-10-09T12:57:17.589Z,15.38
2022-10-09T13:00:06.926Z,14.77
2022-10-09T13:02:53.550Z,16.05
2022-10-09T13:05:42.889Z,14.52
2022-10-09T13:08:35.709Z,15.80
2022-10-09T13:11:34.415Z,14.35
2022-10-09T13:14:27.228Z,15.45
2022-10-09T13:17:28.986Z,15.40
2022-10-09T13:20:20.634Z,14.13
2022-10-09T13:23:07.456Z,14.65
2022-10-09T13:25:53.905Z,19.30
2022-10-09T13:28:40.803Z,18.50
2022-10-09T13:31:26.923Z,13.52
2022-10-09T13:34:14.501Z,16.45
2022-10-09T13:37:00.190Z,14.98
2022-10-09T13:39:58.256Z,14.90
2022-10-09T13:42:54.193Z,14.90
2022-10-09T13:45:43.542Z,14.13
2022-10-09T13:48:31.243Z,13.50
2022-10-09T13:51:16.846Z,14.27
2022-10-09T13:54:02.762Z,13.43
2022-10-09T13:56:48.795Z,14.98
2022-10-09T13:59:34.709Z,12.65
2022-10-09T14:02:20.760Z,12.98
2022-10-09T14:05:07.725Z,13.70
2022-10-09T14:07:55.133Z,12.55
2022-10-09T14:10:44.609Z,13.30
2022-10-09T14:13:31.448Z,12.85
2022-10-09T14:16:17.887Z,11.53
2022-10-09T14:19:05.129Z,11.65
2022-10-09T14:21:51.194Z,6.25
2022-10-09T14:24:37.564Z,5.75
2022-10-09T14:27:23.734Z,3.70
2022-10-09T14:30:10.348Z,3.33
2022-10-09T14:32:56.640Z,2.80
2022-10-09T14:35:43.009Z,3.70
2022-10-09T14:38:29.401Z,4.20
2022-10-09T14:41:18.103Z,4.63
2022-10-09T14:44:04.093Z,3.58
2022-10-09T14:46:49.836Z,3.60
2022-10-09T14:49:35.732Z,4.40
2022-10-09T14:52:22.266Z,4.03
2022-10-09T14:55:09.243Z,4.47
2022-10-09T14:57:54.862Z,2.58
2022-10-09T15:00:47.525Z,2.28
2022-10-09T15:03:36.042Z,3.50
2022-10-09T15:06:27.554Z,3.67
2022-10-09T15:09:13.985Z,2.97
2022-10-09T15:11:59.821Z,3.72
2022-10-09T15:14:46.037Z,6.13
2022-10-09T15:17:31.845Z,3.63
2022-10-09T15:20:18.270Z,11.73
2022-10-09T15:23:04.226Z,4.63
2022-10-09T15:25:51.115Z,2.17
2022-10-09T15:28:38.125Z,3.00
2022-10-09T15:31:29.377Z,4.10
2022-10-09T15:34:19.927Z,13.75
2022-10-09T15:37:06.046Z,3.63
2022-10-09T15:39:52.806Z,3.42
2022-10-09T15:42:41.386Z,3.45
2022-10-09T15:45:27.687Z,5.43
2022-10-09T15:48:20.603Z,3.95
2022-10-09T15:51:07.427Z,4.60
2022-10-09T15:53:53.705Z,8.55
2022-10-09T15:56:41.330Z,22.30
2022-10-09T15:59:27.190Z,5.28
2022-10-09T16:02:15.923Z,3.67
2022-10-09T16:05:02.410Z,3.05
2022-10-09T16:07:48.062Z,3.03
2022-10-09T16:10:34.207Z,2.65
2022-10-09T16:13:24.498Z,2.58
2022-10-09T16:16:19.082Z,2.10
2022-10-09T16:19:05.163Z,13.68
2022-10-09T16:21:51.951Z,3.75
2022-10-09T16:24:38.003Z,13.18
2022-10-09T16:27:24.741Z,3.10
2022-10-09T16:30:13.805Z,2.50
2022-10-09T16:32:59.869Z,4.25
2022-10-09T16:35:46.564Z,3.33
2022-10-09T16:38:33.128Z,3.67
2022-10-09T16:41:21.201Z,2.75
2022-10-09T16:44:13.692Z,3.03
2022-10-09T16:47:00.400Z,5.82
2022-10-09T16:49:46.923Z,4.53
2022-10-09T16:52:33.614Z,5.50
2022-10-09T16:55:19.767Z,4.07
2022-10-09T16:58:06.082Z,4.53
2022-10-09T17:01:01.013Z,5.03
2022-10-09T17:03:47.414Z,3.63
2022-10-09T17:06:33.376Z,3.08
2022-10-09T17:09:19.570Z,5.10
2022-10-09T17:12:10.046Z,4.13
2022-10-09T17:14:55.954Z,3.67
2022-10-09T17:17:41.884Z,14.38
2022-10-09T17:20:27.895Z,3.45
2022-10-09T17:23:14.284Z,5.47
2022-10-09T17:26:08.905Z,4.65
2022-10-09T17:28:55.163Z,2.60
2022-10-09T17:31:42.032Z,3.05
2022-10-09T17:34:28.139Z,4.85
2022-10-09T17:37:14.717Z,3.38
2022-10-09T17:40:00.579Z,3.80
2022-10-09T17:42:46.701Z,4.97
2022-10-09T17:45:41.000Z,3.92
2022-10-09T17:48:27.866Z,5.03
2022-10-09T17:51:18.070Z,9.47
2022-10-09T17:54:11.724Z,5.38
2022-10-09T17:57:00.361Z,4.00
2022-10-09T17:59:46.654Z,4.70
2022-10-09T18:02:32.908Z,5.28
2022-10-09T18:05:21.910Z,33.55
2022-10-09T18:08:07.810Z,12.32
2022-10-09T18:11:00.126Z,5.10
2022-10-09T18:13:46.938Z,5.63
2022-10-09T18:16:36.852Z,3.47
2022-10-09T18:19:22.826Z,4.20
2022-10-09T18:22:08.920Z,3.90
2022-10-09T18:24:54.958Z,4.47
2022-10-09T18:27:41.267Z,3.67
2022-10-09T18:30:27.834Z,4.95
2022-10-09T18:33:14.330Z,3.92
2022-10-09T18:36:06.402Z,22.33
2022-10-09T18:38:58.127Z,3.75
2022-10-09T18:41:45.123Z,4.38
2022-10-09T18:44:35.544Z,6.30
2022-10-09T18:47:26.191Z,3.60
2022-10-09T18:50:13.567Z,5.65
2022-10-09T18:53:00.054Z,11.15
2022-10-09T18:55:45.910Z,11.30
2022-10-09T18:58:31.826Z,4.32
2022-10-09T19:01:17.637Z,5.80
2022-10-09T19:04:03.029Z,4.45
2022-10-09T19:06:48.690Z,6.07
2022-10-09T19:09:36.223Z,7.10
2022-10-09T19:12:21.950Z,6.40
2022-10-09T19:15:12.295Z,11.35
2022-10-09T19:17:58.529Z,6.13
2022-10-09T19:20:44.997Z,6.47
2022-10-09T19:23:31.047Z,5.37
2022-10-09T19:26:17.232Z,6.18
2022-10-09T19:29:05.189Z,7.30
2022-10-09T19:31:51.732Z,7.03
2022-10-09T19:34:38.262Z,6.82
2022-10-09T19:37:27.457Z,4.90
2022-10-09T19:40:15.993Z,5.88
2022-10-09T19:43:02.394Z,6.72
2022-10-09T19:45:50.652Z,5.10
2022-10-09T19:48:37.295Z,4.85
2022-10-09T19:51:25.981Z,5.95
2022-10-09T19:54:12.578Z,6.00
2022-10-09T19:56:58.679Z,4.72
2022-10-09T19:59:45.593Z,5.93
2022-10-09T20:02:31.406Z,5.93
2022-10-09T20:05:17.006Z,5.38
2022-10-09T20:08:03.003Z,4.97
2022-10-09T20:10:49.935Z,6.25
2022-10-09T20:13:37.850Z,5.40
2022-10-09T20:16:24.995Z,5.35
2022-10-09T20:19:12.627Z,4.60
2022-10-09T20:22:01.126Z,4.50
2022-10-09T20:24:46.617Z,4.55
2022-10-09T20:27:32.182Z,5.65
2022-10-09T20:30:18.723Z,4.68
2022-10-09T20:33:04.418Z,5.93
2022-10-09T20:35:50.367Z,5.47
2022-10-09T20:38:37.028Z,4.45
2022-10-09T20:41:24.770Z,5.07
2022-10-09T20:44:12.682Z,5.90
2022-10-09T20:46:58.935Z,6.83
2022-10-09T20:49:45.731Z,8.05
2022-10-09T20:52:31.632Z,5.95
2022-10-09T20:55:18.244Z,13.45
2022-10-09T20:58:04.687Z,7.35
2022-10-09T21:00:50.473Z,6.03
2022-10-09T21:03:37.699Z,4.53
2022-10-09T21:06:23.962Z,4.57
2022-10-09T21:09:10.513Z,5.03
2022-10-09T21:11:56.594Z,9.55
2022-10-09T21:14:42.724Z,4.82
2022-10-09T21:17:29.252Z,5.55
2022-10-09T21:20:15.552Z,7.25
2022-10-09T21:23:01.121Z,4.40
2022-10-09T21:25:53.201Z,5.05
2022-10-09T21:28:39.457Z,6.03
2022-10-09T21:31:28.410Z,5.97
2022-10-09T21:34:14.555Z,6.82
2022-10-09T21:40:08.265Z,5.20
2022-10-09T21:42:54.164Z,5.10
2022-10-09T21:45:40.332Z,8.30
2022-10-09T21:48:26.898Z,6.00
2022-10-09T21:51:13.142Z,12.35
2022-10-09T21:53:59.462Z,7.63
2022-10-09T21:56:45.384Z,6.57
2022-10-09T21:59:31.855Z,5.38
2022-10-09T22:02:17.673Z,6.30
2022-10-09T22:05:03.460Z,6.50
2022-10-09T22:07:49.500Z,5.38
2022-10-09T22:10:36.105Z,5.05
2022-10-09T22:13:22.355Z,7.03
2022-10-09T22:16:10.393Z,11.10
2022-10-09T22:18:57.253Z,6.05
2022-10-09T22:21:43.017Z,5.43
2022-10-09T22:24:30.156Z,4.88
2022-10-09T22:27:16.558Z,4.72
2022-10-09T22:30:02.525Z,5.83
2022-10-09T22:32:48.647Z,5.93
2022-10-09T22:35:34.996Z,6.65
2022-10-09T22:38:21.500Z,6.45
2022-10-09T22:41:09.688Z,6.35
2022-10-09T22:43:58.137Z,5.20
2022-10-09T22:46:45.079Z,5.55
2022-10-09T22:49:30.994Z,7.18
2022-10-09T22:52:17.294Z,5.07
2022-10-09T22:55:03.497Z,6.40
2022-10-09T22:57:49.527Z,6.77
2022-10-09T23:00:38.999Z,5.35
2022-10-09T23:03:25.547Z,4.88
2022-10-09T23:06:17.214Z,6.35
2022-10-09T23:09:05.637Z,5.60
2022-10-09T23:11:51.902Z,5.83
2022-10-09T23:14:37.966Z,6.63
2022-10-09T23:17:24.210Z,5.88
2022-10-09T23:20:10.959Z,5.38
2022-10-09T23:22:56.631Z,5.53
2022-10-09T23:25:42.993Z,7.45
2022-10-09T23:28:29.604Z,6.57
2022-10-09T23:31:16.136Z,8.20
2022-10-09T23:34:04.469Z,6.43
2022-10-09T23:36:50.408Z,5.70
2022-10-09T23:39:36.187Z,8.55
2022-10-09T23:42:21.881Z,5.63
2022-10-09T23:45:09.281Z,6.20
2022-10-09T23:47:55.889Z,6.50
2022-10-09T23:50:42.166Z,6.80
2022-10-09T23:53:29.043Z,6.82
2022-10-09T23:56:25.343Z,5.47
2022-10-09T23:59:14.576Z,9.00
